sensor_id;sensor_type;location;lat;lon;timestamp;P1;durP1;ratioP1;P2;durP2;ratioP2
12312;SDS011;6220;53.580;9.758;2023-08-21T00:01:52;7.93;;;3.00;;
12312;SDS011;6220;53.580;9.758;2023-08-21T00:04:17;5.17;;;2.80;;
12312;SDS011;6220;53.580;9.758;2023-08-21T00:06:43;6.33;;;2.80;;
12312;SDS011;6220;53.580;9.758;2023-08-21T00:09:08;6.67;;;3.00;;
12312;SDS011;6220;53.580;9.758;2023-08-21T00:11:34;5.17;;;2.77;;
12312;SDS011;6220;53.580;9.758;2023-08-21T00:14:00;6.67;;;2.40;;
12312;SDS011;6220;53.580;9.758;2023-08-21T00:16:25;7.03;;;2.90;;
12312;SDS011;6220;53.580;9.758;2023-08-21T00:18:51;5.13;;;2.57;;
12312;SDS011;6220;53.580;9.758;2023-08-21T00:21:18;6.30;;;2.97;;
12312;SDS011;6220;53.580;9.758;2023-08-21T00:23:44;5.83;;;2.90;;
12312;SDS011;6220;53.580;9.758;2023-08-21T00:26:09;6.00;;;2.90;;
12312;SDS011;6220;53.580;9.758;2023-08-21T00:28:34;5.73;;;2.83;;
12312;SDS011;6220;53.580;9.758;2023-08-21T00:31:01;6.27;;;3.20;;
12312;SDS011;6220;53.580;9.758;2023-08-21T00:33:28;6.90;;;3.27;;
12312;SDS011;6220;53.580;9.758;2023-08-21T00:35:54;5.87;;;2.50;;
12312;SDS011;6220;53.580;9.758;2023-08-21T00:38:19;6.17;;;2.83;;
12312;SDS011;6220;53.580;9.758;2023-08-21T00:40:45;7.93;;;2.63;;
12312;SDS011;6220;53.580;9.758;2023-08-21T00:43:10;9.00;;;2.47;;
12312;SDS011;6220;53.580;9.758;2023-08-21T00:45:39;6.53;;;2.60;;
12312;SDS011;6220;53.580;9.758;2023-08-21T00:48:07;5.60;;;2.37;;
12312;SDS011;6220;53.580;9.758;2023-08-21T00:50:32;5.73;;;2.80;;
12312;SDS011;6220;53.580;9.758;2023-08-21T00:52:58;8.63;;;3.07;;
12312;SDS011;6220;53.580;9.758;2023-08-21T00:55:23;8.40;;;2.63;;
12312;SDS011;6220;53.580;9.758;2023-08-21T00:57:48;7.27;;;3.10;;
12312;SDS011;6220;53.580;9.758;2023-08-21T01:00:14;6.53;;;2.43;;
12312;SDS011;6220;53.580;9.758;2023-08-21T01:02:39;8.53;;;2.90;;
12312;SDS011;6220;53.580;9.758;2023-08-21T01:05:05;6.87;;;3.00;;
12312;SDS011;6220;53.580;9.758;2023-08-21T01:07:32;5.70;;;2.87;;
12312;SDS011;6220;53.580;9.758;2023-08-21T01:10:28;5.23;;;2.50;;
12312;SDS011;6220;53.580;9.758;2023-08-21T01:13:59;5.40;;;3.00;;
12312;SDS011;6220;53.580;9.758;2023-08-21T01:16:29;5.60;;;2.87;;
12312;SDS011;6220;53.580;9.758;2023-08-21T01:18:54;6.37;;;2.80;;
12312;SDS011;6220;53.580;9.758;2023-08-21T01:27:56;6.60;;;2.90;;
12312;SDS011;6220;53.580;9.758;2023-08-21T01:30:21;7.00;;;2.67;;
12312;SDS011;6220;53.580;9.758;2023-08-21T01:35:33;5.33;;;2.77;;
12312;SDS011;6220;53.580;9.758;2023-08-21T01:37:59;9.63;;;2.97;;
12312;SDS011;6220;53.580;9.758;2023-08-21T01:40:25;6.57;;;2.87;;
12312;SDS011;6220;53.580;9.758;2023-08-21T01:42:54;6.20;;;2.77;;
12312;SDS011;6220;53.580;9.758;2023-08-21T01:45:19;5.60;;;2.50;;
12312;SDS011;6220;53.580;9.758;2023-08-21T01:47:45;9.53;;;2.73;;
12312;SDS011;6220;53.580;9.758;2023-08-21T01:50:10;5.63;;;2.40;;
12312;SDS011;6220;53.580;9.758;2023-08-21T01:52:36;6.47;;;2.60;;
12312;SDS011;6220;53.580;9.758;2023-08-21T01:55:01;6.70;;;2.87;;
12312;SDS011;6220;53.580;9.758;2023-08-21T01:57:26;5.63;;;2.10;;
12312;SDS011;6220;53.580;9.758;2023-08-21T01:59:52;6.07;;;2.70;;
12312;SDS011;6220;53.580;9.758;2023-08-21T02:02:17;5.47;;;2.30;;
12312;SDS011;6220;53.580;9.758;2023-08-21T02:04:43;6.83;;;2.50;;
12312;SDS011;6220;53.580;9.758;2023-08-21T02:07:08;5.97;;;2.60;;
12312;SDS011;6220;53.580;9.758;2023-08-21T02:09:33;4.67;;;2.30;;
12312;SDS011;6220;53.580;9.758;2023-08-21T02:12:02;5.63;;;2.17;;
12312;SDS011;6220;53.580;9.758;2023-08-21T02:14:27;5.20;;;3.00;;
12312;SDS011;6220;53.580;9.758;2023-08-21T02:16:53;5.47;;;2.53;;
12312;SDS011;6220;53.580;9.758;2023-08-21T02:19:18;4.47;;;2.13;;
12312;SDS011;6220;53.580;9.758;2023-08-21T02:21:44;4.77;;;2.27;;
12312;SDS011;6220;53.580;9.758;2023-08-21T02:24:09;4.77;;;2.37;;
12312;SDS011;6220;53.580;9.758;2023-08-21T02:26:35;8.53;;;2.97;;
12312;SDS011;6220;53.580;9.758;2023-08-21T02:29:01;6.27;;;2.33;;
12312;SDS011;6220;53.580;9.758;2023-08-21T02:31:28;5.00;;;2.40;;
12312;SDS011;6220;53.580;9.758;2023-08-21T02:33:54;4.97;;;2.27;;
12312;SDS011;6220;53.580;9.758;2023-08-21T02:36:19;5.50;;;2.43;;
12312;SDS011;6220;53.580;9.758;2023-08-21T02:38:44;4.73;;;2.77;;
12312;SDS011;6220;53.580;9.758;2023-08-21T02:41:10;5.17;;;2.87;;
12312;SDS011;6220;53.580;9.758;2023-08-21T02:43:35;4.90;;;2.30;;
12312;SDS011;6220;53.580;9.758;2023-08-21T02:46:00;4.23;;;2.33;;
12312;SDS011;6220;53.580;9.758;2023-08-21T02:48:26;4.77;;;2.60;;
12312;SDS011;6220;53.580;9.758;2023-08-21T02:50:51;3.57;;;2.00;;
12312;SDS011;6220;53.580;9.758;2023-08-21T02:53:16;6.87;;;2.67;;
12312;SDS011;6220;53.580;9.758;2023-08-21T02:55:42;5.77;;;2.50;;
12312;SDS011;6220;53.580;9.758;2023-08-21T02:58:07;3.80;;;2.40;;
12312;SDS011;6220;53.580;9.758;2023-08-21T03:00:34;5.07;;;2.37;;
12312;SDS011;6220;53.580;9.758;2023-08-21T03:02:59;5.00;;;2.73;;
12312;SDS011;6220;53.580;9.758;2023-08-21T03:05:25;6.13;;;2.57;;
12312;SDS011;6220;53.580;9.758;2023-08-21T03:07:50;6.60;;;2.37;;
12312;SDS011;6220;53.580;9.758;2023-08-21T03:10:16;5.63;;;3.00;;
12312;SDS011;6220;53.580;9.758;2023-08-21T03:12:42;5.30;;;2.47;;
12312;SDS011;6220;53.580;9.758;2023-08-21T03:15:08;5.43;;;2.50;;
12312;SDS011;6220;53.580;9.758;2023-08-21T03:17:33;5.77;;;2.87;;
12312;SDS011;6220;53.580;9.758;2023-08-21T03:19:58;4.50;;;2.60;;
12312;SDS011;6220;53.580;9.758;2023-08-21T03:22:24;6.10;;;2.73;;
12312;SDS011;6220;53.580;9.758;2023-08-21T03:24:49;6.37;;;2.50;;
12312;SDS011;6220;53.580;9.758;2023-08-21T03:27:15;9.27;;;3.10;;
12312;SDS011;6220;53.580;9.758;2023-08-21T03:29:42;5.70;;;2.63;;
12312;SDS011;6220;53.580;9.758;2023-08-21T03:32:13;5.90;;;2.90;;
12312;SDS011;6220;53.580;9.758;2023-08-21T03:34:39;3.50;;;2.50;;
12312;SDS011;6220;53.580;9.758;2023-08-21T03:37:05;7.23;;;3.37;;
12312;SDS011;6220;53.580;9.758;2023-08-21T03:39:30;4.13;;;2.83;;
12312;SDS011;6220;53.580;9.758;2023-08-21T03:41:56;4.03;;;2.60;;
12312;SDS011;6220;53.580;9.758;2023-08-21T03:44:22;4.73;;;2.63;;
12312;SDS011;6220;53.580;9.758;2023-08-21T03:46:48;6.23;;;3.57;;
12312;SDS011;6220;53.580;9.758;2023-08-21T03:49:13;8.37;;;3.17;;
12312;SDS011;6220;53.580;9.758;2023-08-21T03:51:38;4.33;;;2.97;;
12312;SDS011;6220;53.580;9.758;2023-08-21T03:54:04;7.73;;;2.93;;
12312;SDS011;6220;53.580;9.758;2023-08-21T03:56:30;7.40;;;3.27;;
12312;SDS011;6220;53.580;9.758;2023-08-21T03:58:55;5.77;;;2.90;;
12312;SDS011;6220;53.580;9.758;2023-08-21T04:01:21;7.63;;;3.50;;
12312;SDS011;6220;53.580;9.758;2023-08-21T04:03:46;5.80;;;3.73;;
12312;SDS011;6220;53.580;9.758;2023-08-21T04:06:11;6.73;;;3.10;;
12312;SDS011;6220;53.580;9.758;2023-08-21T04:08:37;8.07;;;3.50;;
12312;SDS011;6220;53.580;9.758;2023-08-21T04:11:02;7.50;;;3.33;;
12312;SDS011;6220;53.580;9.758;2023-08-21T04:13:27;7.77;;;3.33;;
12312;SDS011;6220;53.580;9.758;2023-08-21T04:15:53;7.00;;;3.80;;
12312;SDS011;6220;53.580;9.758;2023-08-21T04:18:22;7.07;;;4.20;;
12312;SDS011;6220;53.580;9.758;2023-08-21T04:20:48;8.17;;;3.27;;
12312;SDS011;6220;53.580;9.758;2023-08-21T04:23:13;6.67;;;3.30;;
12312;SDS011;6220;53.580;9.758;2023-08-21T04:25:38;8.20;;;3.70;;
12312;SDS011;6220;53.580;9.758;2023-08-21T04:28:04;9.90;;;4.07;;
12312;SDS011;6220;53.580;9.758;2023-08-21T04:30:29;6.40;;;3.50;;
12312;SDS011;6220;53.580;9.758;2023-08-21T04:32:55;8.50;;;4.30;;
12312;SDS011;6220;53.580;9.758;2023-08-21T04:35:20;8.67;;;3.93;;
12312;SDS011;6220;53.580;9.758;2023-08-21T04:37:46;8.73;;;4.30;;
12312;SDS011;6220;53.580;9.758;2023-08-21T04:40:12;5.53;;;3.77;;
12312;SDS011;6220;53.580;9.758;2023-08-21T04:42:37;9.20;;;4.00;;
12312;SDS011;6220;53.580;9.758;2023-08-21T04:45:03;7.80;;;3.83;;
12312;SDS011;6220;53.580;9.758;2023-08-21T04:47:30;9.07;;;4.80;;
12312;SDS011;6220;53.580;9.758;2023-08-21T04:49:55;9.10;;;4.60;;
12312;SDS011;6220;53.580;9.758;2023-08-21T04:52:21;6.90;;;3.90;;
12312;SDS011;6220;53.580;9.758;2023-08-21T04:54:47;9.57;;;4.80;;
12312;SDS011;6220;53.580;9.758;2023-08-21T04:57:13;5.80;;;3.93;;
12312;SDS011;6220;53.580;9.758;2023-08-21T04:59:39;7.07;;;4.33;;
12312;SDS011;6220;53.580;9.758;2023-08-21T05:02:04;8.60;;;4.40;;
12312;SDS011;6220;53.580;9.758;2023-08-21T05:04:30;11.60;;;4.67;;
12312;SDS011;6220;53.580;9.758;2023-08-21T05:06:55;11.37;;;4.63;;
12312;SDS011;6220;53.580;9.758;2023-08-21T05:09:22;11.07;;;4.13;;
12312;SDS011;6220;53.580;9.758;2023-08-21T05:11:48;11.20;;;5.37;;
12312;SDS011;6220;53.580;9.758;2023-08-21T05:14:13;9.00;;;4.97;;
12312;SDS011;6220;53.580;9.758;2023-08-21T05:16:38;9.97;;;5.17;;
12312;SDS011;6220;53.580;9.758;2023-08-21T05:19:04;9.40;;;4.70;;
12312;SDS011;6220;53.580;9.758;2023-08-21T05:21:31;11.53;;;5.20;;
12312;SDS011;6220;53.580;9.758;2023-08-21T05:23:57;11.30;;;4.60;;
12312;SDS011;6220;53.580;9.758;2023-08-21T05:26:22;9.80;;;4.90;;
12312;SDS011;6220;53.580;9.758;2023-08-21T05:28:48;12.67;;;4.90;;
12312;SDS011;6220;53.580;9.758;2023-08-21T05:31:13;11.03;;;4.80;;
12312;SDS011;6220;53.580;9.758;2023-08-21T05:33:39;11.10;;;5.33;;
12312;SDS011;6220;53.580;9.758;2023-08-21T05:36:05;8.27;;;5.27;;
12312;SDS011;6220;53.580;9.758;2023-08-21T05:38:32;9.10;;;4.40;;
12312;SDS011;6220;53.580;9.758;2023-08-21T05:40:57;11.50;;;6.00;;
12312;SDS011;6220;53.580;9.758;2023-08-21T05:43:24;10.07;;;4.93;;
12312;SDS011;6220;53.580;9.758;2023-08-21T05:45:49;10.73;;;5.70;;
12312;SDS011;6220;53.580;9.758;2023-08-21T05:48:15;7.37;;;4.80;;
12312;SDS011;6220;53.580;9.758;2023-08-21T05:50:41;11.67;;;5.10;;
12312;SDS011;6220;53.580;9.758;2023-08-21T05:53:07;14.80;;;5.40;;
12312;SDS011;6220;53.580;9.758;2023-08-21T05:55:32;8.97;;;5.10;;
12312;SDS011;6220;53.580;9.758;2023-08-21T05:57:58;13.90;;;4.83;;
12312;SDS011;6220;53.580;9.758;2023-08-21T06:00:23;9.40;;;5.13;;
12312;SDS011;6220;53.580;9.758;2023-08-21T06:02:49;12.90;;;5.20;;
12312;SDS011;6220;53.580;9.758;2023-08-21T06:05:14;13.53;;;5.10;;
12312;SDS011;6220;53.580;9.758;2023-08-21T06:07:40;11.23;;;4.73;;
12312;SDS011;6220;53.580;9.758;2023-08-21T06:10:06;9.57;;;4.77;;
12312;SDS011;6220;53.580;9.758;2023-08-21T06:12:33;10.50;;;4.50;;
12312;SDS011;6220;53.580;9.758;2023-08-21T06:14:59;11.97;;;4.40;;
12312;SDS011;6220;53.580;9.758;2023-08-21T06:17:24;11.37;;;4.43;;
12312;SDS011;6220;53.580;9.758;2023-08-21T06:19:49;12.77;;;4.90;;
12312;SDS011;6220;53.580;9.758;2023-08-21T06:22:15;11.67;;;4.27;;
12312;SDS011;6220;53.580;9.758;2023-08-21T06:24:40;13.87;;;4.43;;
12312;SDS011;6220;53.580;9.758;2023-08-21T06:27:06;10.70;;;4.37;;
12312;SDS011;6220;53.580;9.758;2023-08-21T06:29:32;13.90;;;4.50;;
12312;SDS011;6220;53.580;9.758;2023-08-21T06:31:57;13.30;;;4.30;;
12312;SDS011;6220;53.580;9.758;2023-08-21T06:34:22;10.67;;;3.97;;
12312;SDS011;6220;53.580;9.758;2023-08-21T06:36:49;13.27;;;3.33;;
12312;SDS011;6220;53.580;9.758;2023-08-21T06:39:15;9.53;;;3.00;;
12312;SDS011;6220;53.580;9.758;2023-08-21T06:41:40;7.37;;;3.00;;
12312;SDS011;6220;53.580;9.758;2023-08-21T06:44:05;8.90;;;3.20;;
12312;SDS011;6220;53.580;9.758;2023-08-21T06:46:31;9.97;;;3.40;;
12312;SDS011;6220;53.580;9.758;2023-08-21T06:48:57;8.30;;;3.27;;
12312;SDS011;6220;53.580;9.758;2023-08-21T06:51:23;10.90;;;3.50;;
12312;SDS011;6220;53.580;9.758;2023-08-21T06:53:48;9.93;;;3.23;;
12312;SDS011;6220;53.580;9.758;2023-08-21T06:56:14;7.47;;;2.87;;
12312;SDS011;6220;53.580;9.758;2023-08-21T06:58:40;8.77;;;3.27;;
12312;SDS011;6220;53.580;9.758;2023-08-21T07:01:06;6.73;;;2.70;;
12312;SDS011;6220;53.580;9.758;2023-08-21T07:03:32;10.63;;;3.23;;
12312;SDS011;6220;53.580;9.758;2023-08-21T07:05:57;10.27;;;3.10;;
12312;SDS011;6220;53.580;9.758;2023-08-21T07:08:24;6.67;;;2.47;;
12312;SDS011;6220;53.580;9.758;2023-08-21T07:10:50;8.83;;;3.33;;
12312;SDS011;6220;53.580;9.758;2023-08-21T07:13:15;11.90;;;3.53;;
12312;SDS011;6220;53.580;9.758;2023-08-21T07:15:41;10.23;;;2.93;;
12312;SDS011;6220;53.580;9.758;2023-08-21T07:18:06;6.27;;;2.33;;
12312;SDS011;6220;53.580;9.758;2023-08-21T07:20:33;9.80;;;2.73;;
12312;SDS011;6220;53.580;9.758;2023-08-21T07:22:58;7.23;;;2.47;;
12312;SDS011;6220;53.580;9.758;2023-08-21T07:25:24;10.57;;;2.93;;
12312;SDS011;6220;53.580;9.758;2023-08-21T07:27:50;6.83;;;2.30;;
12312;SDS011;6220;53.580;9.758;2023-08-21T07:30:18;8.27;;;2.40;;
12312;SDS011;6220;53.580;9.758;2023-08-21T07:32:45;7.43;;;2.80;;
12312;SDS011;6220;53.580;9.758;2023-08-21T07:35:11;8.37;;;2.70;;
12312;SDS011;6220;53.580;9.758;2023-08-21T07:37:38;9.70;;;2.83;;
12312;SDS011;6220;53.580;9.758;2023-08-21T07:40:06;9.90;;;2.90;;
12312;SDS011;6220;53.580;9.758;2023-08-21T07:42:32;8.93;;;2.67;;
12312;SDS011;6220;53.580;9.758;2023-08-21T07:44:57;10.57;;;2.60;;
12312;SDS011;6220;53.580;9.758;2023-08-21T07:47:22;8.77;;;2.60;;
12312;SDS011;6220;53.580;9.758;2023-08-21T07:49:48;11.07;;;2.80;;
12312;SDS011;6220;53.580;9.758;2023-08-21T07:52:13;10.17;;;2.73;;
12312;SDS011;6220;53.580;9.758;2023-08-21T07:54:38;7.07;;;2.50;;
12312;SDS011;6220;53.580;9.758;2023-08-21T07:57:04;6.47;;;2.30;;
12312;SDS011;6220;53.580;9.758;2023-08-21T07:59:29;6.20;;;2.13;;
12312;SDS011;6220;53.580;9.758;2023-08-21T08:01:54;6.90;;;2.20;;
12312;SDS011;6220;53.580;9.758;2023-08-21T08:04:21;5.73;;;2.33;;
12312;SDS011;6220;53.580;9.758;2023-08-21T08:06:47;4.10;;;1.83;;
12312;SDS011;6220;53.580;9.758;2023-08-21T08:09:13;5.57;;;2.07;;
12312;SDS011;6220;53.580;9.758;2023-08-21T08:11:38;6.60;;;2.03;;
12312;SDS011;6220;53.580;9.758;2023-08-21T08:14:03;7.83;;;1.90;;
12312;SDS011;6220;53.580;9.758;2023-08-21T08:16:29;5.77;;;1.93;;
12312;SDS011;6220;53.580;9.758;2023-08-21T08:18:54;5.73;;;1.60;;
12312;SDS011;6220;53.580;9.758;2023-08-21T08:21:19;4.63;;;1.70;;
12312;SDS011;6220;53.580;9.758;2023-08-21T08:23:45;6.87;;;1.80;;
12312;SDS011;6220;53.580;9.758;2023-08-21T08:26:10;5.50;;;2.27;;
12312;SDS011;6220;53.580;9.758;2023-08-21T08:28:36;5.03;;;1.70;;
12312;SDS011;6220;53.580;9.758;2023-08-21T08:31:01;5.77;;;1.83;;
12312;SDS011;6220;53.580;9.758;2023-08-21T08:33:27;8.23;;;2.10;;
12312;SDS011;6220;53.580;9.758;2023-08-21T08:35:52;5.27;;;2.10;;
12312;SDS011;6220;53.580;9.758;2023-08-21T08:38:19;8.13;;;1.80;;
12312;SDS011;6220;53.580;9.758;2023-08-21T08:40:45;7.20;;;2.30;;
12312;SDS011;6220;53.580;9.758;2023-08-21T08:43:12;5.53;;;2.00;;
12312;SDS011;6220;53.580;9.758;2023-08-21T08:45:38;3.90;;;1.70;;
12312;SDS011;6220;53.580;9.758;2023-08-21T08:48:06;5.70;;;1.97;;
12312;SDS011;6220;53.580;9.758;2023-08-21T08:50:32;3.60;;;1.50;;
12312;SDS011;6220;53.580;9.758;2023-08-21T08:52:58;5.27;;;1.90;;
12312;SDS011;6220;53.580;9.758;2023-08-21T08:55:25;4.57;;;1.57;;
12312;SDS011;6220;53.580;9.758;2023-08-21T08:57:51;4.30;;;1.60;;
12312;SDS011;6220;53.580;9.758;2023-08-21T09:00:18;5.20;;;1.70;;
12312;SDS011;6220;53.580;9.758;2023-08-21T09:02:45;5.07;;;1.70;;
12312;SDS011;6220;53.580;9.758;2023-08-21T09:05:10;4.33;;;1.60;;
12312;SDS011;6220;53.580;9.758;2023-08-21T09:07:35;3.77;;;1.60;;
12312;SDS011;6220;53.580;9.758;2023-08-21T09:10:01;5.13;;;1.87;;
12312;SDS011;6220;53.580;9.758;2023-08-21T09:12:28;5.17;;;2.00;;
12312;SDS011;6220;53.580;9.758;2023-08-21T09:14:56;3.33;;;1.73;;
12312;SDS011;6220;53.580;9.758;2023-08-21T09:17:24;5.73;;;1.93;;
12312;SDS011;6220;53.580;9.758;2023-08-21T09:19:51;3.33;;;1.60;;
12312;SDS011;6220;53.580;9.758;2023-08-21T09:22:17;4.90;;;1.90;;
12312;SDS011;6220;53.580;9.758;2023-08-21T09:25:03;4.40;;;1.63;;
12312;SDS011;6220;53.580;9.758;2023-08-21T09:27:34;3.40;;;1.70;;
12312;SDS011;6220;53.580;9.758;2023-08-21T09:30:08;3.57;;;1.50;;
12312;SDS011;6220;53.580;9.758;2023-08-21T09:35:20;3.40;;;1.43;;
12312;SDS011;6220;53.580;9.758;2023-08-21T09:37:49;3.80;;;1.40;;
12312;SDS011;6220;53.580;9.758;2023-08-21T09:40:15;4.50;;;1.73;;
12312;SDS011;6220;53.580;9.758;2023-08-21T09:42:41;4.70;;;1.60;;
12312;SDS011;6220;53.580;9.758;2023-08-21T09:45:06;3.50;;;1.47;;
12312;SDS011;6220;53.580;9.758;2023-08-21T09:47:32;3.87;;;1.50;;
12312;SDS011;6220;53.580;9.758;2023-08-21T09:49:58;3.63;;;1.57;;
12312;SDS011;6220;53.580;9.758;2023-08-21T09:52:24;4.37;;;1.40;;
12312;SDS011;6220;53.580;9.758;2023-08-21T09:54:52;4.33;;;1.50;;
12312;SDS011;6220;53.580;9.758;2023-08-21T09:57:18;4.10;;;1.70;;
12312;SDS011;6220;53.580;9.758;2023-08-21T09:59:46;5.10;;;1.40;;
12312;SDS011;6220;53.580;9.758;2023-08-21T10:02:12;4.23;;;1.37;;
12312;SDS011;6220;53.580;9.758;2023-08-21T10:04:37;4.33;;;1.53;;
12312;SDS011;6220;53.580;9.758;2023-08-21T10:07:05;3.67;;;1.40;;
12312;SDS011;6220;53.580;9.758;2023-08-21T10:09:32;4.27;;;1.70;;
12312;SDS011;6220;53.580;9.758;2023-08-21T10:11:58;5.20;;;1.60;;
12312;SDS011;6220;53.580;9.758;2023-08-21T10:14:24;5.53;;;1.60;;
12312;SDS011;6220;53.580;9.758;2023-08-21T10:16:51;2.93;;;1.43;;
12312;SDS011;6220;53.580;9.758;2023-08-21T10:19:17;5.07;;;1.57;;
12312;SDS011;6220;53.580;9.758;2023-08-21T10:21:42;3.43;;;1.47;;
12312;SDS011;6220;53.580;9.758;2023-08-21T10:24:11;3.97;;;1.53;;
12312;SDS011;6220;53.580;9.758;2023-08-21T10:26:39;3.33;;;1.50;;
12312;SDS011;6220;53.580;9.758;2023-08-21T10:29:05;3.90;;;1.23;;
12312;SDS011;6220;53.580;9.758;2023-08-21T10:34:06;3.90;;;1.43;;
12312;SDS011;6220;53.580;9.758;2023-08-21T10:41:54;2.90;;;1.40;;
12312;SDS011;6220;53.580;9.758;2023-08-21T10:47:21;5.43;;;1.70;;
12312;SDS011;6220;53.580;9.758;2023-08-21T10:49:51;2.33;;;1.17;;
12312;SDS011;6220;53.580;9.758;2023-08-21T10:52:20;6.53;;;1.90;;
12312;SDS011;6220;53.580;9.758;2023-08-21T10:54:48;4.30;;;1.27;;
12312;SDS011;6220;53.580;9.758;2023-08-21T10:57:15;4.60;;;1.77;;
12312;SDS011;6220;53.580;9.758;2023-08-21T10:59:57;4.13;;;1.33;;
12312;SDS011;6220;53.580;9.758;2023-08-21T11:02:24;4.20;;;1.53;;
12312;SDS011;6220;53.580;9.758;2023-08-21T11:04:52;5.63;;;1.30;;
12312;SDS011;6220;53.580;9.758;2023-08-21T11:07:18;3.83;;;1.50;;
12312;SDS011;6220;53.580;9.758;2023-08-21T11:09:43;6.80;;;2.00;;
12312;SDS011;6220;53.580;9.758;2023-08-21T11:12:10;4.23;;;1.30;;
12312;SDS011;6220;53.580;9.758;2023-08-21T11:14:39;4.43;;;1.20;;
12312;SDS011;6220;53.580;9.758;2023-08-21T11:17:05;2.90;;;1.10;;
12312;SDS011;6220;53.580;9.758;2023-08-21T11:19:31;3.00;;;1.30;;
12312;SDS011;6220;53.580;9.758;2023-08-21T11:21:57;3.27;;;1.50;;
12312;SDS011;6220;53.580;9.758;2023-08-21T11:24:29;4.77;;;1.73;;
12312;SDS011;6220;53.580;9.758;2023-08-21T11:27:04;5.87;;;1.47;;
12312;SDS011;6220;53.580;9.758;2023-08-21T11:29:37;4.33;;;1.67;;
12312;SDS011;6220;53.580;9.758;2023-08-21T11:32:21;3.83;;;1.60;;
12312;SDS011;6220;53.580;9.758;2023-08-21T11:37:18;4.60;;;1.60;;
12312;SDS011;6220;53.580;9.758;2023-08-21T11:39:48;3.00;;;1.30;;
12312;SDS011;6220;53.580;9.758;2023-08-21T11:42:21;4.23;;;1.50;;
12312;SDS011;6220;53.580;9.758;2023-08-21T11:44:54;5.20;;;1.70;;
12312;SDS011;6220;53.580;9.758;2023-08-21T11:47:20;4.47;;;1.63;;
12312;SDS011;6220;53.580;9.758;2023-08-21T11:49:47;4.43;;;1.40;;
12312;SDS011;6220;53.580;9.758;2023-08-21T11:52:14;2.20;;;1.60;;
12312;SDS011;6220;53.580;9.758;2023-08-21T11:54:42;8.10;;;1.47;;
12312;SDS011;6220;53.580;9.758;2023-08-21T11:57:08;4.77;;;1.60;;
12312;SDS011;6220;53.580;9.758;2023-08-21T11:59:37;4.07;;;1.60;;
12312;SDS011;6220;53.580;9.758;2023-08-21T12:02:07;2.90;;;1.20;;
12312;SDS011;6220;53.580;9.758;2023-08-21T12:04:35;2.90;;;1.40;;
12312;SDS011;6220;53.580;9.758;2023-08-21T12:07:00;3.50;;;1.30;;
12312;SDS011;6220;53.580;9.758;2023-08-21T12:09:25;3.47;;;1.20;;
12312;SDS011;6220;53.580;9.758;2023-08-21T12:11:51;3.53;;;1.30;;
12312;SDS011;6220;53.580;9.758;2023-08-21T12:14:17;5.03;;;1.60;;
12312;SDS011;6220;53.580;9.758;2023-08-21T12:16:42;3.67;;;1.60;;
12312;SDS011;6220;53.580;9.758;2023-08-21T12:19:08;5.00;;;1.50;;
12312;SDS011;6220;53.580;9.758;2023-08-21T12:21:34;3.80;;;1.50;;
12312;SDS011;6220;53.580;9.758;2023-08-21T12:24:04;2.53;;;1.40;;
12312;SDS011;6220;53.580;9.758;2023-08-21T12:26:30;2.50;;;1.27;;
12312;SDS011;6220;53.580;9.758;2023-08-21T12:28:55;2.83;;;1.40;;
12312;SDS011;6220;53.580;9.758;2023-08-21T12:31:21;3.93;;;1.30;;
12312;SDS011;6220;53.580;9.758;2023-08-21T12:33:46;3.57;;;1.50;;
12312;SDS011;6220;53.580;9.758;2023-08-21T12:36:12;3.27;;;1.30;;
12312;SDS011;6220;53.580;9.758;2023-08-21T12:38:37;1.77;;;1.17;;
12312;SDS011;6220;53.580;9.758;2023-08-21T12:41:02;2.33;;;1.50;;
12312;SDS011;6220;53.580;9.758;2023-08-21T12:43:28;3.50;;;1.50;;
12312;SDS011;6220;53.580;9.758;2023-08-21T12:45:53;4.30;;;1.30;;
12312;SDS011;6220;53.580;9.758;2023-08-21T12:48:19;3.13;;;1.10;;
12312;SDS011;6220;53.580;9.758;2023-08-21T12:50:44;3.23;;;1.40;;
12312;SDS011;6220;53.580;9.758;2023-08-21T12:53:09;2.47;;;1.27;;
12312;SDS011;6220;53.580;9.758;2023-08-21T12:55:35;4.40;;;1.37;;
12312;SDS011;6220;53.580;9.758;2023-08-21T12:58:01;2.73;;;1.70;;
12312;SDS011;6220;53.580;9.758;2023-08-21T13:00:27;2.47;;;1.40;;
12312;SDS011;6220;53.580;9.758;2023-08-21T13:02:52;3.40;;;1.47;;
12312;SDS011;6220;53.580;9.758;2023-08-21T13:05:17;2.93;;;1.50;;
12312;SDS011;6220;53.580;9.758;2023-08-21T13:07:44;3.80;;;1.43;;
12312;SDS011;6220;53.580;9.758;2023-08-21T13:10:10;3.20;;;1.33;;
12312;SDS011;6220;53.580;9.758;2023-08-21T13:12:36;3.60;;;1.37;;
12312;SDS011;6220;53.580;9.758;2023-08-21T13:15:02;3.53;;;1.20;;
12312;SDS011;6220;53.580;9.758;2023-08-21T13:17:27;2.17;;;1.30;;
12312;SDS011;6220;53.580;9.758;2023-08-21T13:19:53;1.63;;;1.20;;
12312;SDS011;6220;53.580;9.758;2023-08-21T13:22:18;3.47;;;1.87;;
12312;SDS011;6220;53.580;9.758;2023-08-21T13:24:44;2.60;;;1.40;;
12312;SDS011;6220;53.580;9.758;2023-08-21T13:27:09;2.20;;;1.10;;
12312;SDS011;6220;53.580;9.758;2023-08-21T13:29:35;1.30;;;1.20;;
12312;SDS011;6220;53.580;9.758;2023-08-21T13:32:00;2.67;;;1.37;;
12312;SDS011;6220;53.580;9.758;2023-08-21T13:34:25;1.73;;;1.17;;
12312;SDS011;6220;53.580;9.758;2023-08-21T13:36:51;2.03;;;1.20;;
12312;SDS011;6220;53.580;9.758;2023-08-21T13:39:16;1.87;;;1.10;;
12312;SDS011;6220;53.580;9.758;2023-08-21T13:41:42;2.90;;;1.40;;
12312;SDS011;6220;53.580;9.758;2023-08-21T13:44:08;2.97;;;1.10;;
12312;SDS011;6220;53.580;9.758;2023-08-21T13:46:34;4.60;;;1.37;;
12312;SDS011;6220;53.580;9.758;2023-08-21T13:48:59;3.67;;;1.30;;
12312;SDS011;6220;53.580;9.758;2023-08-21T13:51:25;4.00;;;1.40;;
12312;SDS011;6220;53.580;9.758;2023-08-21T13:53:50;3.83;;;1.17;;
12312;SDS011;6220;53.580;9.758;2023-08-21T13:56:16;4.53;;;1.33;;
12312;SDS011;6220;53.580;9.758;2023-08-21T13:58:41;3.20;;;1.30;;
12312;SDS011;6220;53.580;9.758;2023-08-21T14:01:07;2.33;;;1.50;;
12312;SDS011;6220;53.580;9.758;2023-08-21T14:03:33;3.97;;;1.30;;
12312;SDS011;6220;53.580;9.758;2023-08-21T14:05:58;5.10;;;1.70;;
12312;SDS011;6220;53.580;9.758;2023-08-21T14:08:24;2.13;;;1.20;;
12312;SDS011;6220;53.580;9.758;2023-08-21T14:10:49;1.97;;;1.23;;
12312;SDS011;6220;53.580;9.758;2023-08-21T14:13:14;3.23;;;1.37;;
12312;SDS011;6220;53.580;9.758;2023-08-21T14:15:40;4.23;;;1.60;;
12312;SDS011;6220;53.580;9.758;2023-08-21T14:18:05;2.73;;;1.40;;
12312;SDS011;6220;53.580;9.758;2023-08-21T14:20:31;2.27;;;1.50;;
12312;SDS011;6220;53.580;9.758;2023-08-21T14:22:56;2.27;;;1.20;;
12312;SDS011;6220;53.580;9.758;2023-08-21T14:25:22;6.13;;;1.50;;
12312;SDS011;6220;53.580;9.758;2023-08-21T14:27:47;2.87;;;1.37;;
12312;SDS011;6220;53.580;9.758;2023-08-21T14:30:14;3.77;;;1.40;;
12312;SDS011;6220;53.580;9.758;2023-08-21T14:32:39;3.73;;;1.57;;
12312;SDS011;6220;53.580;9.758;2023-08-21T14:35:05;5.00;;;1.60;;
12312;SDS011;6220;53.580;9.758;2023-08-21T14:37:33;6.23;;;1.40;;
12312;SDS011;6220;53.580;9.758;2023-08-21T14:39:58;5.27;;;1.63;;
12312;SDS011;6220;53.580;9.758;2023-08-21T14:42:24;3.23;;;1.43;;
12312;SDS011;6220;53.580;9.758;2023-08-21T14:44:49;6.40;;;1.87;;
12312;SDS011;6220;53.580;9.758;2023-08-21T14:47:15;5.50;;;1.67;;
12312;SDS011;6220;53.580;9.758;2023-08-21T14:49:41;2.13;;;1.50;;
12312;SDS011;6220;53.580;9.758;2023-08-21T14:52:08;4.23;;;1.80;;
12312;SDS011;6220;53.580;9.758;2023-08-21T14:54:33;2.60;;;1.50;;
12312;SDS011;6220;53.580;9.758;2023-08-21T14:57:00;3.33;;;1.70;;
12312;SDS011;6220;53.580;9.758;2023-08-21T14:59:25;2.30;;;1.50;;
12312;SDS011;6220;53.580;9.758;2023-08-21T15:01:51;4.73;;;2.30;;
12312;SDS011;6220;53.580;9.758;2023-08-21T15:04:17;3.63;;;1.57;;
12312;SDS011;6220;53.580;9.758;2023-08-21T15:06:42;2.80;;;1.80;;
12312;SDS011;6220;53.580;9.758;2023-08-21T15:09:08;1.67;;;1.40;;
12312;SDS011;6220;53.580;9.758;2023-08-21T15:11:33;4.10;;;1.83;;
12312;SDS011;6220;53.580;9.758;2023-08-21T15:14:00;2.87;;;1.50;;
12312;SDS011;6220;53.580;9.758;2023-08-21T15:16:27;6.17;;;1.50;;
12312;SDS011;6220;53.580;9.758;2023-08-21T15:18:54;3.13;;;1.60;;
12312;SDS011;6220;53.580;9.758;2023-08-21T15:21:21;3.13;;;1.53;;